Pagrindinis puslapis
METAR-TAF:

METAR-TAF

Oro uostai :

Centralia Municipal Airport

Centralia, Ilinojus, Jungtinės Amerikos Valstijos

platuma: 38-30-53N, ilguma: 089-05-32W, Aukštis: 163 m

Dabartinis oras

Ataskaita buvo paskelbta 16 minutes, ne 11:15 UTC
Vėjas 12 kt iš Vakarų
Temperatūra 1°C
Drėgmė 100%
Slėgis 1016 hPa
Matomumas: 11.3 km
Apsiniaukę ne aukštis 1200 ft

METAR: KENL 251115Z AUTO 26012KT 7SM OVC012 01/01 A2999 RMK AO2 T00110005

Laikas: 05:31 (11:31 UTC)


TAF: trūkstamas

Orai ataskaitas ir orų prognozės (METAR, TAF).

turimą stotys yra geltonos ir raudonos taškus žemėlapyje.

Perkelti pele per norėdami pamatyti stoties vardą.

Tada spustelėkite, norėdami matyti oro stebėjimo ir prognozės.

Norėdami pakeisti žemėlapį: spustelėkite ant žalios mygtukų su juodo kryžiaus žemyn,; žalią mygtuką su brūkšneliu, jei norite nutolinti; arba žalių rodyklių gretimoms žemėlapius.


METAR-TAF: